Time;durP1;ratioP1;P1;durP2;ratioP2;P2;SDS_P1;SDS_P2;PMS_P1;PMS_P2;Temp;Humidity;BMP_temperature;BMP_pressure;BME280_temperature;BME280_humidity;BME280_pressure;Samples;Min_cycle;Max_cycle;Signal;HPM_P1;HPM_P2
2021/12/26 00:00:14;;;;;;;16.90;6.95;;;-5.40;99.90;;;;;;5015084;28;20055;-75
2021/12/26 00:02:40;;;;;;;14.88;7.00;;;-5.40;99.90;;;;;;5014877;28;20092;-73
2021/12/26 00:05:07;;;;;;;15.02;6.35;;;-5.40;99.90;;;;;;4999871;28;20053;-75
2021/12/26 00:07:33;;;;;;;17.10;6.47;;;-5.40;99.90;;;;;;5018104;28;20045;-73
2021/12/26 00:09:59;;;;;;;13.80;5.85;;;-5.40;99.90;;;;;;5034983;28;20068;-73
2021/12/26 00:12:24;;;;;;;17.48;6.30;;;-5.40;99.90;;;;;;5018747;28;20042;-73
2021/12/26 00:14:50;;;;;;;18.42;6.13;;;-5.40;99.90;;;;;;5001853;28;20072;-73
2021/12/26 00:17:16;;;;;;;21.30;6.00;;;-5.40;99.90;;;;;;5023766;28;20052;-73
2021/12/26 00:19:41;;;;;;;12.63;6.10;;;-5.40;99.90;;;;;;5037892;28;20040;-74
2021/12/26 00:22:07;;;;;;;14.05;5.93;;;-5.40;99.90;;;;;;5021086;28;20479;-75
2021/12/26 00:24:33;;;;;;;14.55;5.93;;;-5.50;99.90;;;;;;5037631;28;20049;-73
2021/12/26 00:26:58;;;;;;;14.80;5.28;;;-5.50;99.90;;;;;;5021208;28;20051;-74
2021/12/26 00:29:24;;;;;;;14.35;5.13;;;-5.50;99.90;;;;;;5037284;28;20132;-74
2021/12/26 00:31:50;;;;;;;14.00;5.32;;;-5.50;99.90;;;;;;5021203;28;20059;-75
2021/12/26 00:34:16;;;;;;;14.00;5.10;;;-5.50;99.90;;;;;;5037686;28;20037;-75
2021/12/26 00:36:42;;;;;;;12.25;5.13;;;-5.50;99.90;;;;;;5020826;28;20422;-73
2021/12/26 00:39:09;;;;;;;11.88;4.72;;;-5.50;99.90;;;;;;5038264;28;20072;-75
2021/12/26 00:41:35;;;;;;;14.38;4.90;;;-5.50;99.90;;;;;;5037832;28;20037;-74
2021/12/26 00:44:01;;;;;;;9.82;4.40;;;-5.50;99.90;;;;;;5037361;28;20487;-73
2021/12/26 00:46:27;;;;;;;11.05;4.30;;;-5.50;99.90;;;;;;5037212;28;20056;-74
2021/12/26 00:48:52;;;;;;;10.70;4.20;;;-5.50;99.90;;;;;;5037256;28;20048;-73
2021/12/26 00:51:18;;;;;;;9.70;3.92;;;-5.50;99.90;;;;;;5020592;28;20402;-74
2021/12/26 00:53:44;;;;;;;6.60;3.20;;;-5.60;99.90;;;;;;5037499;28;20045;-73
2021/12/26 00:56:09;;;;;;;7.88;3.83;;;-5.60;99.90;;;;;;5020967;28;20047;-76
2021/12/26 00:58:35;;;;;;;10.20;3.65;;;-5.60;99.90;;;;;;5056257;28;20053;-73
2021/12/26 01:01:01;;;;;;;9.80;3.30;;;-5.50;99.90;;;;;;5057360;28;20134;-75
2021/12/26 01:03:27;;;;;;;8.85;3.25;;;-5.50;99.90;;;;;;5057083;28;20131;-74
2021/12/26 01:05:55;;;;;;;8.15;3.08;;;-5.50;99.90;;;;;;5056817;28;20040;-74
2021/12/26 01:08:26;;;;;;;9.43;3.30;;;-5.50;99.90;;;;;;5040236;28;20048;-75
2021/12/26 01:10:56;;;;;;;5.15;2.42;;;-5.50;99.90;;;;;;5040756;28;20083;-76
2021/12/26 01:13:32;;;;;;;5.63;2.30;;;-5.50;99.90;;;;;;5057036;28;20078;-75
2021/12/26 01:16:01;;;;;;;5.95;2.95;;;-5.50;99.90;;;;;;5055037;28;20033;-74
2021/12/26 01:18:32;;;;;;;7.80;2.60;;;-5.50;99.90;;;;;;5052415;28;20048;-74
2021/12/26 01:21:05;;;;;;;6.55;2.90;;;-5.50;99.90;;;;;;5036759;28;20479;-73
2021/12/26 01:23:32;;;;;;;6.70;2.88;;;-5.40;99.90;;;;;;5053840;28;20057;-73
2021/12/26 01:25:58;;;;;;;6.85;2.90;;;-5.50;99.90;;;;;;5036876;28;20037;-74
2021/12/26 01:28:28;;;;;;;6.53;2.60;;;-5.50;99.90;;;;;;5019928;28;20132;-73
2021/12/26 01:30:55;;;;;;;6.72;2.75;;;-5.50;99.90;;;;;;5036194;28;20084;-73
2021/12/26 01:33:22;;;;;;;7.28;2.70;;;-5.50;99.90;;;;;;5037212;28;20119;-75
2021/12/26 01:35:48;;;;;;;9.77;2.78;;;-5.50;99.90;;;;;;5036964;28;20076;-74
2021/12/26 01:38:14;;;;;;;7.78;3.05;;;-5.50;99.90;;;;;;5046504;28;20507;-73
2021/12/26 01:40:44;;;;;;;9.77;3.10;;;-5.50;99.90;;;;;;5039395;28;20040;-75
2021/12/26 01:43:12;;;;;;;13.93;4.43;;;-5.50;99.90;;;;;;5056169;28;20482;-73
2021/12/26 01:45:37;;;;;;;11.60;3.72;;;-5.50;99.90;;;;;;5055843;28;20037;-73
2021/12/26 01:48:05;;;;;;;9.43;3.45;;;-5.50;99.90;;;;;;5056115;28;20071;-73
2021/12/26 01:50:31;;;;;;;9.63;3.67;;;-5.50;99.90;;;;;;5056301;28;20050;-74
2021/12/26 01:52:57;;;;;;;10.52;3.72;;;-5.50;99.90;;;;;;5039370;28;20428;-73
2021/12/26 01:55:26;;;;;;;7.88;2.90;;;-5.40;99.90;;;;;;5056200;28;20527;-74
2021/12/26 01:57:57;;;;;;;3.92;2.55;;;-5.40;99.90;;;;;;5042438;28;20053;-74
2021/12/26 02:00:25;;;;;;;8.10;2.90;;;-5.40;99.90;;;;;;5019666;28;20499;-75
2021/12/26 02:02:50;;;;;;;10.95;3.40;;;-5.40;99.90;;;;;;5036122;28;20541;-74
2021/12/26 02:05:17;;;;;;;11.43;3.10;;;-5.40;99.90;;;;;;5036135;28;20037;-73
2021/12/26 02:07:43;;;;;;;6.85;2.60;;;-5.40;99.90;;;;;;5035816;28;20044;-73
2021/12/26 02:10:09;;;;;;;6.25;2.47;;;-5.40;99.90;;;;;;5036027;28;20055;-74
2021/12/26 02:12:35;;;;;;;5.20;2.40;;;-5.40;99.90;;;;;;5018590;28;20037;-76
2021/12/26 02:15:01;;;;;;;3.58;2.15;;;-5.50;99.90;;;;;;5019364;28;20045;-73
2021/12/26 02:17:28;;;;;;;6.43;2.80;;;-5.50;99.90;;;;;;5035768;28;20033;-74
2021/12/26 02:20:18;;;;;;;2.92;2.03;;;-5.40;99.90;;;;;;5030957;28;20107;-74
2021/12/26 02:22:49;;;;;;;5.05;1.80;;;-5.50;99.90;;;;;;5015892;28;20048;-73
2021/12/26 02:25:30;;;;;;;5.57;2.47;;;-5.50;99.90;;;;;;4999199;28;20052;-73
2021/12/26 02:27:55;;;;;;;4.28;1.92;;;-5.50;99.90;;;;;;5015719;28;20045;-72
2021/12/26 02:30:23;;;;;;;4.50;2.20;;;-5.60;99.90;;;;;;4999594;28;20049;-73
2021/12/26 02:32:50;;;;;;;3.97;2.20;;;-5.60;99.90;;;;;;4999668;28;20072;-73
2021/12/26 02:35:18;;;;;;;4.97;2.15;;;-5.60;99.90;;;;;;4999373;28;20076;-74
2021/12/26 02:37:44;;;;;;;3.80;2.08;;;-5.60;99.90;;;;;;4999007;28;20128;-75
2021/12/26 02:40:10;;;;;;;4.68;2.15;;;-5.60;99.90;;;;;;5015925;28;20068;-74
2021/12/26 02:42:36;;;;;;;3.63;2.30;;;-5.60;99.90;;;;;;5024446;28;20032;-73
2021/12/26 02:45:02;;;;;;;4.53;2.15;;;-5.60;99.90;;;;;;5019117;28;20041;-74
2021/12/26 02:47:32;;;;;;;5.53;2.35;;;-5.50;99.90;;;;;;5035284;28;20040;-73
2021/12/26 02:49:59;;;;;;;4.15;2.20;;;-5.60;99.90;;;;;;5035164;28;20410;-75
2021/12/26 02:52:25;;;;;;;4.55;2.20;;;-5.60;99.90;;;;;;5018359;28;20076;-73
2021/12/26 02:54:51;;;;;;;4.88;2.70;;;-5.60;99.90;;;;;;5019000;28;20495;-73
2021/12/26 02:57:17;;;;;;;5.55;2.72;;;-5.60;99.90;;;;;;5044234;28;20051;-73
2021/12/26 02:59:42;;;;;;;5.82;2.60;;;-5.60;99.90;;;;;;5055379;28;20363;-73
2021/12/26 03:02:08;;;;;;;6.38;3.03;;;-5.60;99.90;;;;;;5055205;28;20040;-73
2021/12/26 03:04:35;;;;;;;10.05;3.03;;;-5.60;99.90;;;;;;5054369;28;20043;-73
2021/12/26 03:07:03;;;;;;;11.90;4.20;;;-5.60;99.90;;;;;;5036830;28;20106;-73
2021/12/26 03:09:34;;;;;;;16.85;5.47;;;-5.60;99.90;;;;;;5055148;28;20039;-73
2021/12/26 03:12:00;;;;;;;16.08;5.28;;;-5.60;99.90;;;;;;5038302;28;20459;-74
2021/12/26 03:14:26;;;;;;;16.30;5.55;;;-5.60;99.90;;;;;;5055017;28;20095;-73
2021/12/26 03:16:53;;;;;;;15.07;5.20;;;-5.60;99.90;;;;;;5054708;28;20056;-74
2021/12/26 03:19:19;;;;;;;16.60;5.30;;;-5.60;99.90;;;;;;5054473;28;20089;-74
2021/12/26 03:21:50;;;;;;;12.30;5.80;;;-5.60;99.90;;;;;;5039044;28;20417;-73
2021/12/26 03:24:16;;;;;;;18.08;6.57;;;-5.60;99.90;;;;;;5038436;28;20028;-73
2021/12/26 03:26:42;;;;;;;14.68;4.60;;;-5.60;99.90;;;;;;5054834;28;20174;-73
2021/12/26 03:29:07;;;;;;;10.68;4.28;;;-5.60;99.90;;;;;;5037913;28;20033;-74
2021/12/26 03:31:33;;;;;;;12.55;4.22;;;-5.60;99.90;;;;;;5054676;28;20432;-73
2021/12/26 03:34:01;;;;;;;13.43;4.80;;;-5.60;99.90;;;;;;5054615;28;20450;-74
2021/12/26 03:36:26;;;;;;;9.25;4.28;;;-5.70;99.90;;;;;;5054624;28;20395;-74
2021/12/26 03:38:52;;;;;;;7.13;3.42;;;-5.70;99.90;;;;;;5051088;28;20487;-73
2021/12/26 03:41:20;;;;;;;6.18;3.30;;;-5.60;99.90;;;;;;5038398;28;20486;-75
2021/12/26 03:43:46;;;;;;;10.07;3.63;;;-5.70;99.90;;;;;;5021895;28;20131;-73
2021/12/26 03:46:11;;;;;;;7.95;3.45;;;-5.60;99.90;;;;;;5038566;28;20452;-73
2021/12/26 03:48:37;;;;;;;7.85;3.20;;;-5.60;99.90;;;;;;5038188;28;20029;-74
2021/12/26 03:51:05;;;;;;;7.97;3.50;;;-5.60;99.90;;;;;;5038759;28;20053;-74
2021/12/26 03:53:30;;;;;;;8.13;3.17;;;-5.60;99.90;;;;;;5038955;28;20044;-73
2021/12/26 03:55:56;;;;;;;6.15;3.00;;;-5.50;99.90;;;;;;5038970;28;20048;-74
2021/12/26 03:58:22;;;;;;;5.90;3.00;;;-5.50;99.90;;;;;;5022110;28;20053;-76
2021/12/26 04:00:49;;;;;;;9.75;4.32;;;-5.50;99.90;;;;;;5021995;28;20045;-74
2021/12/26 04:03:15;;;;;;;10.13;4.10;;;-5.50;99.90;;;;;;5037869;28;20466;-74
2021/12/26 04:05:41;;;;;;;7.97;4.13;;;-5.50;99.90;;;;;;5039004;28;20045;-75
2021/12/26 04:08:06;;;;;;;9.32;3.83;;;-5.50;99.90;;;;;;5022303;28;20090;-74
2021/12/26 04:10:32;;;;;;;8.93;3.90;;;-5.50;99.90;;;;;;5038334;28;20102;-74
2021/12/26 04:12:58;;;;;;;7.05;3.55;;;-5.60;99.90;;;;;;5021759;28;20105;-75
2021/12/26 04:15:25;;;;;;;8.52;3.75;;;-5.50;99.90;;;;;;5037951;28;20441;-73
2021/12/26 04:17:54;;;;;;;6.50;3.20;;;-5.50;99.90;;;;;;5020969;28;20052;-74
2021/12/26 04:20:22;;;;;;;6.03;3.30;;;-5.50;99.90;;;;;;5021504;28;20483;-76
2021/12/26 04:22:49;;;;;;;6.28;3.33;;;-5.50;99.90;;;;;;5037909;28;20475;-73
2021/12/26 04:25:14;;;;;;;4.55;3.22;;;-5.50;99.90;;;;;;5037901;28;20056;-74
2021/12/26 04:27:40;;;;;;;6.47;3.10;;;-5.50;99.90;;;;;;5021421;28;20045;-75
2021/12/26 04:30:10;;;;;;;8.50;3.17;;;-5.50;99.90;;;;;;5021115;28;20380;-73
2021/12/26 04:32:36;;;;;;;5.60;3.13;;;-5.50;99.90;;;;;;5021193;28;20049;-74
2021/12/26 04:35:02;;;;;;;7.88;3.15;;;-5.50;99.90;;;;;;5038017;28;20486;-73
2021/12/26 04:37:28;;;;;;;6.65;3.20;;;-5.50;99.90;;;;;;5037709;28;20479;-74
2021/12/26 04:39:53;;;;;;;7.05;3.10;;;-5.50;99.90;;;;;;5021478;28;20051;-76
2021/12/26 04:42:19;;;;;;;4.75;3.22;;;-5.50;99.90;;;;;;5037288;28;20383;-73
2021/12/26 04:44:45;;;;;;;5.75;3.22;;;-5.50;99.90;;;;;;5020765;28;20132;-73
2021/12/26 04:47:10;;;;;;;8.43;3.30;;;-5.60;99.90;;;;;;4993448;28;20177;-73
2021/12/26 04:49:36;;;;;;;6.45;3.17;;;-5.60;99.90;;;;;;4993853;28;20060;-74
2021/12/26 04:52:02;;;;;;;6.00;2.95;;;-5.60;99.90;;;;;;4993325;28;20073;-75
2021/12/26 04:54:28;;;;;;;7.97;3.38;;;-5.60;99.90;;;;;;4976681;28;20065;-73
2021/12/26 04:56:54;;;;;;;7.40;3.28;;;-5.60;99.90;;;;;;4997581;28;20081;-74
2021/12/26 04:59:20;;;;;;;6.03;3.20;;;-5.60;99.90;;;;;;4992837;28;20085;-73
2021/12/26 05:01:45;;;;;;;4.95;3.00;;;-5.60;99.90;;;;;;5009828;28;20086;-73
2021/12/26 05:04:11;;;;;;;8.60;3.17;;;-5.60;99.90;;;;;;5010312;28;20497;-75
2021/12/26 05:06:37;;;;;;;7.05;3.58;;;-5.60;99.90;;;;;;4993830;28;20052;-74
2021/12/26 05:09:03;;;;;;;5.28;2.80;;;-5.60;99.90;;;;;;5009708;28;20133;-74
2021/12/26 05:11:29;;;;;;;6.03;3.45;;;-5.60;99.90;;;;;;4993418;28;20150;-73
2021/12/26 05:13:55;;;;;;;7.63;3.10;;;-5.60;99.90;;;;;;4977060;28;20054;-73
2021/12/26 05:16:20;;;;;;;7.35;3.92;;;-5.60;99.90;;;;;;5009416;28;20105;-74
2021/12/26 05:18:46;;;;;;;6.53;4.22;;;-5.60;99.90;;;;;;4992904;28;20049;-74
2021/12/26 05:21:12;;;;;;;7.03;3.70;;;-5.60;99.90;;;;;;4993187;28;20046;-73
2021/12/26 05:23:37;;;;;;;5.72;3.55;;;-5.60;99.90;;;;;;4998950;28;20046;-73
2021/12/26 05:26:03;;;;;;;8.07;3.92;;;-5.60;99.90;;;;;;5040843;28;20341;-74
2021/12/26 05:28:29;;;;;;;8.50;4.00;;;-5.60;99.90;;;;;;5055505;28;20054;-73
2021/12/26 05:30:54;;;;;;;7.85;4.28;;;-5.60;99.90;;;;;;5039068;28;20368;-74
2021/12/26 05:33:20;;;;;;;7.47;4.20;;;-5.60;99.90;;;;;;5056681;28;20040;-75
2021/12/26 05:35:46;;;;;;;9.07;4.53;;;-5.60;99.90;;;;;;5056636;28;20047;-73
2021/12/26 05:38:11;;;;;;;10.02;4.50;;;-5.60;99.90;;;;;;5056273;28;20110;-74
2021/12/26 05:40:37;;;;;;;8.15;4.68;;;-5.50;99.90;;;;;;5039836;28;20036;-76
2021/12/26 05:43:03;;;;;;;9.18;4.72;;;-5.60;99.90;;;;;;5039642;28;20044;-76
2021/12/26 05:45:28;;;;;;;7.97;4.40;;;-5.50;99.90;;;;;;5056026;28;20047;-76
2021/12/26 05:47:54;;;;;;;7.43;4.88;;;-5.50;99.90;;;;;;5056582;28;20086;-76
2021/12/26 05:50:21;;;;;;;11.02;4.82;;;-5.50;99.90;;;;;;5040315;28;20044;-76
2021/12/26 05:52:47;;;;;;;9.18;4.32;;;-5.50;99.90;;;;;;5056362;28;20132;-76
2021/12/26 05:55:13;;;;;;;12.30;4.60;;;-5.50;99.90;;;;;;5056058;28;20466;-76
2021/12/26 05:57:39;;;;;;;9.98;4.30;;;-5.50;99.90;;;;;;5043621;28;20059;-76
2021/12/26 06:00:09;;;;;;;10.23;4.43;;;-5.50;99.90;;;;;;5035424;28;20473;-76
2021/12/26 06:02:34;;;;;;;7.97;4.47;;;-5.50;99.90;;;;;;5018998;28;20091;-76
2021/12/26 06:05:00;;;;;;;10.70;4.82;;;-5.50;99.90;;;;;;5019816;28;20077;-76
2021/12/26 06:07:26;;;;;;;10.35;4.60;;;-5.50;99.90;;;;;;5035475;28;20064;-76
2021/12/26 06:09:52;;;;;;;10.80;4.25;;;-5.50;99.90;;;;;;5036044;28;20048;-76
2021/12/26 06:12:18;;;;;;;10.18;4.35;;;-5.50;99.90;;;;;;5019365;28;20455;-76
2021/12/26 06:14:44;;;;;;;9.68;4.63;;;-5.60;99.90;;;;;;5035500;28;20048;-75
2021/12/26 06:17:10;;;;;;;9.02;4.68;;;-5.50;99.90;;;;;;5036052;28;20045;-75
2021/12/26 06:19:36;;;;;;;9.80;4.22;;;-5.50;99.90;;;;;;5036218;28;20379;-76
2021/12/26 06:22:02;;;;;;;10.43;4.85;;;-5.50;99.90;;;;;;5019132;28;20455;-77
2021/12/26 06:24:29;;;;;;;9.10;4.43;;;-5.50;99.90;;;;;;5035296;28;20057;-78
2021/12/26 06:26:55;;;;;;;10.15;5.10;;;-5.50;99.90;;;;;;5019274;28;20083;-78
2021/12/26 06:29:21;;;;;;;8.63;4.05;;;-5.50;99.90;;;;;;5035382;28;20076;-77
2021/12/26 06:31:47;;;;;;;7.00;4.18;;;-5.40;99.90;;;;;;5035628;28;20087;-76
2021/12/26 06:34:12;;;;;;;6.78;3.78;;;-5.40;99.90;;;;;;5035508;28;20083;-77
2021/12/26 06:36:38;;;;;;;6.93;4.15;;;-5.40;99.90;;;;;;5035859;28;20044;-76
2021/12/26 06:39:05;;;;;;;6.85;3.95;;;-5.50;99.90;;;;;;5035398;28;20109;-76
2021/12/26 06:41:31;;;;;;;6.32;3.78;;;-5.50;99.90;;;;;;5035473;28;20037;-73
2021/12/26 06:43:57;;;;;;;8.23;4.03;;;-5.50;99.90;;;;;;5034361;28;20112;-73
2021/12/26 06:46:23;;;;;;;6.38;3.90;;;-5.50;99.90;;;;;;5031522;28;20188;-76
2021/12/26 06:48:49;;;;;;;8.63;4.75;;;-5.50;99.90;;;;;;5013983;28;20040;-73
2021/12/26 06:51:15;;;;;;;8.55;3.85;;;-5.50;99.90;;;;;;5035669;28;20084;-73
2021/12/26 06:53:41;;;;;;;6.75;4.35;;;-5.50;99.90;;;;;;5035349;28;20083;-74
2021/12/26 06:56:07;;;;;;;6.10;3.42;;;-5.50;99.90;;;;;;5035605;28;20041;-74
2021/12/26 06:58:33;;;;;;;7.55;4.20;;;-5.60;99.90;;;;;;5053420;28;20048;-73
2021/12/26 07:00:59;;;;;;;7.20;4.03;;;-5.60;99.90;;;;;;5055256;28;20475;-73
2021/12/26 07:03:25;;;;;;;6.20;3.70;;;-5.60;99.90;;;;;;5055346;28;20047;-77
2021/12/26 07:05:50;;;;;;;7.63;3.85;;;-5.60;99.90;;;;;;5055053;28;20098;-72
2021/12/26 07:08:16;;;;;;;6.72;3.90;;;-5.60;99.90;;;;;;5038450;28;20044;-73
2021/12/26 07:10:44;;;;;;;6.78;4.18;;;-5.60;99.90;;;;;;5055070;28;20055;-73
2021/12/26 07:13:09;;;;;;;7.10;3.78;;;-5.60;99.90;;;;;;5054469;28;20040;-76
2021/12/26 07:15:35;;;;;;;7.05;4.03;;;-5.70;99.90;;;;;;5058929;28;20040;-72
2021/12/26 07:18:01;;;;;;;6.13;3.60;;;-5.70;99.90;;;;;;5042370;28;20033;-73
2021/12/26 07:20:26;;;;;;;8.50;4.13;;;-5.70;99.90;;;;;;5059793;28;20094;-72
2021/12/26 07:22:52;;;;;;;7.38;3.72;;;-5.70;99.90;;;;;;5055116;28;20041;-75
2021/12/26 07:25:18;;;;;;;6.43;4.03;;;-5.70;99.90;;;;;;5038923;28;20049;-75
2021/12/26 07:27:44;;;;;;;6.00;3.92;;;-5.80;99.90;;;;;;5038603;28;20510;-75
2021/12/26 07:30:10;;;;;;;6.57;4.00;;;-5.70;99.90;;;;;;5039350;28;20087;-75
2021/12/26 07:32:36;;;;;;;8.55;3.92;;;-5.80;99.90;;;;;;5039082;28;20053;-75
2021/12/26 07:35:03;;;;;;;6.10;4.20;;;-5.80;99.90;;;;;;5038788;28;20037;-75
2021/12/26 07:37:29;;;;;;;8.95;4.53;;;-5.80;99.90;;;;;;5022514;28;20079;-75
2021/12/26 07:39:54;;;;;;;7.80;4.30;;;-5.80;99.90;;;;;;5038687;28;20052;-75
2021/12/26 07:42:21;;;;;;;7.85;4.68;;;-5.80;99.90;;;;;;5050260;28;20127;-76
2021/12/26 07:44:47;;;;;;;11.25;4.80;;;-5.80;99.90;;;;;;5058805;28;20051;-73
2021/12/26 07:47:13;;;;;;;10.27;5.32;;;-5.80;99.90;;;;;;5041810;28;20048;-73
2021/12/26 07:49:40;;;;;;;7.80;4.80;;;-5.70;99.90;;;;;;5058388;28;20501;-73
2021/12/26 07:52:15;;;;;;;11.48;5.00;;;-5.70;99.90;;;;;;5058539;28;20036;-73
2021/12/26 07:54:42;;;;;;;8.02;5.40;;;-5.70;99.90;;;;;;5058202;28;20071;-72
2021/12/26 07:57:08;;;;;;;12.05;5.63;;;-5.70;99.90;;;;;;5051181;28;20231;-75
2021/12/26 07:59:35;;;;;;;13.00;5.15;;;-5.70;99.90;;;;;;5038471;28;20049;-73
2021/12/26 08:02:02;;;;;;;11.25;5.75;;;-5.60;99.90;;;;;;5038666;28;20047;-72
2021/12/26 08:04:28;;;;;;;11.02;5.60;;;-5.60;99.90;;;;;;5038309;28;20400;-77
2021/12/26 08:06:54;;;;;;;9.18;5.40;;;-5.60;99.90;;;;;;5038205;28;20044;-72
2021/12/26 08:09:20;;;;;;;15.13;6.57;;;-5.60;99.90;;;;;;5021501;28;20075;-73
2021/12/26 08:11:46;;;;;;;15.10;6.93;;;-5.60;99.90;;;;;;5021826;28;20060;-73
2021/12/26 08:14:12;;;;;;;12.48;6.55;;;-5.60;99.90;;;;;;5021828;28;20043;-72
2021/12/26 08:16:38;;;;;;;14.35;6.07;;;-5.50;99.90;;;;;;5021781;28;20045;-72
2021/12/26 08:19:06;;;;;;;14.05;6.28;;;-5.50;99.90;;;;;;5037554;28;20043;-71
2021/12/26 08:21:33;;;;;;;10.23;5.90;;;-5.50;99.90;;;;;;5021752;28;20048;-75
2021/12/26 08:23:58;;;;;;;14.80;7.88;;;-5.40;99.90;;;;;;5021060;28;20298;-73
2021/12/26 08:26:24;;;;;;;19.20;8.07;;;-5.50;99.90;;;;;;5037840;28;20120;-72
2021/12/26 08:28:50;;;;;;;18.40;8.63;;;-5.40;99.90;;;;;;5021488;28;20459;-72
2021/12/26 08:31:17;;;;;;;20.00;9.68;;;-5.40;99.90;;;;;;5037767;28;20037;-74
2021/12/26 08:33:43;;;;;;;25.23;11.27;;;-5.40;99.90;;;;;;5020996;28;20053;-76
2021/12/26 08:36:09;;;;;;;25.27;11.75;;;-5.30;99.90;;;;;;5020060;28;20528;-77
2021/12/26 08:38:35;;;;;;;31.02;12.82;;;-5.30;99.90;;;;;;5033191;28;20434;-75
2021/12/26 08:41:01;;;;;;;28.77;13.15;;;-5.30;99.90;;;;;;5018127;28;20044;-73
2021/12/26 08:43:27;;;;;;;30.05;11.05;;;-5.30;99.90;;;;;;5017778;28;20041;-75
2021/12/26 08:45:53;;;;;;;17.58;8.82;;;-5.20;99.90;;;;;;5001641;28;20088;-73
2021/12/26 08:48:19;;;;;;;21.02;9.98;;;-5.20;99.90;;;;;;5001160;28;20041;-75
2021/12/26 08:50:45;;;;;;;23.20;10.20;;;-5.10;99.90;;;;;;5017625;28;20417;-74
2021/12/26 08:53:12;;;;;;;23.17;11.10;;;-5.10;99.90;;;;;;5026776;28;20124;-74
2021/12/26 08:55:38;;;;;;;23.13;10.77;;;-5.10;99.90;;;;;;5037427;28;20428;-72
2021/12/26 08:58:06;;;;;;;23.27;10.73;;;-5.00;99.90;;;;;;5052034;28;20402;-74
2021/12/26 09:00:34;;;;;;;17.77;8.75;;;-5.00;99.90;;;;;;5040458;28;20535;-73
2021/12/26 09:03:00;;;;;;;15.20;7.15;;;-4.90;99.90;;;;;;5057010;28;20331;-72
2021/12/26 09:05:26;;;;;;;11.80;6.15;;;-4.80;99.90;;;;;;5040518;28;20467;-73
2021/12/26 09:07:52;;;;;;;10.15;5.40;;;-4.80;99.90;;;;;;5040182;28;20032;-74
2021/12/26 09:10:18;;;;;;;9.85;5.10;;;-4.80;99.90;;;;;;5057334;28;20033;-73
2021/12/26 09:12:44;;;;;;;10.02;5.40;;;-4.80;99.90;;;;;;5056910;28;20451;-74
2021/12/26 09:15:12;;;;;;;9.82;5.28;;;-4.70;99.90;;;;;;5057430;28;20076;-74
2021/12/26 09:17:38;;;;;;;8.88;4.78;;;-4.70;99.90;;;;;;5039886;28;20036;-73
2021/12/26 09:20:06;;;;;;;7.47;4.47;;;-4.60;99.90;;;;;;5056767;28;20387;-76
2021/12/26 09:22:32;;;;;;;6.47;4.63;;;-4.60;99.90;;;;;;5039683;28;20063;-77
2021/12/26 09:24:57;;;;;;;10.00;4.65;;;-4.60;99.90;;;;;;5039050;28;20032;-75
2021/12/26 09:27:23;;;;;;;11.65;5.25;;;-4.50;99.90;;;;;;5056880;28;20033;-74
2021/12/26 09:29:48;;;;;;;9.30;5.50;;;-4.50;99.90;;;;;;5056722;28;20059;-74
2021/12/26 09:32:14;;;;;;;7.88;4.80;;;-4.40;99.90;;;;;;5056867;28;20060;-74
2021/12/26 09:34:40;;;;;;;7.93;4.78;;;-4.40;99.90;;;;;;5056145;28;20463;-76
2021/12/26 09:37:08;;;;;;;8.43;4.68;;;-4.40;99.90;;;;;;5054971;28;20471;-73
2021/12/26 09:39:34;;;;;;;10.05;5.10;;;-4.30;99.90;;;;;;5055202;28;20044;-73
2021/12/26 09:42:00;;;;;;;10.25;5.13;;;-4.30;99.90;;;;;;5051677;28;20470;-73
2021/12/26 09:44:27;;;;;;;7.55;4.97;;;-4.20;99.90;;;;;;5056242;28;20047;-73
2021/12/26 09:46:52;;;;;;;9.02;5.20;;;-4.10;99.90;;;;;;5038667;28;20044;-73
2021/12/26 09:49:19;;;;;;;8.27;5.03;;;-3.90;99.90;;;;;;5039189;28;20063;-73
2021/12/26 09:51:45;;;;;;;7.70;4.82;;;-3.70;99.90;;;;;;5055430;28;20052;-73
2021/12/26 09:54:11;;;;;;;6.18;4.60;;;-3.60;99.90;;;;;;5039529;28;20044;-77
2021/12/26 09:56:36;;;;;;;9.55;5.55;;;-3.70;99.90;;;;;;5030112;28;20432;-74
2021/12/26 09:59:13;;;;;;;10.35;5.03;;;-3.60;99.90;;;;;;5054941;28;20408;-73
2021/12/26 10:01:43;;;;;;;7.97;5.25;;;-3.60;99.90;;;;;;5039134;28;20051;-73
2021/12/26 10:04:20;;;;;;;;;;;-3.50;99.90;;;;;;5056281;28;20052;-75
2021/12/26 10:06:48;;;;;;;10.35;5.63;;;-3.50;99.90;;;;;;5055931;28;19920;-72
2021/12/26 10:09:15;;;;;;;9.93;5.38;;;-3.40;99.90;;;;;;5031415;28;20044;-73
2021/12/26 10:11:46;;;;;;;9.98;5.40;;;-3.40;99.90;;;;;;5019219;28;20475;-73
2021/12/26 10:14:15;;;;;;;10.88;5.82;;;-3.30;99.90;;;;;;5035643;28;20365;-74
2021/12/26 10:16:47;;;;;;;12.23;5.93;;;-3.30;99.90;;;;;;5018726;28;20391;-73
2021/12/26 10:19:13;;;;;;;9.60;5.35;;;-3.20;99.90;;;;;;5035500;28;20047;-73
2021/12/26 10:21:50;;;;;;;9.57;5.28;;;-3.10;99.90;;;;;;5042248;28;20075;-73
2021/12/26 10:24:25;;;;;;;10.27;6.32;;;-3.10;99.90;;;;;;5049969;28;20446;-74
2021/12/26 10:26:56;;;;;;;9.10;5.35;;;-2.90;99.90;;;;;;5039250;28;20041;-73
2021/12/26 10:29:28;;;;;;;11.25;5.57;;;-2.90;99.90;;;;;;5055806;28;20452;-73
2021/12/26 10:32:04;;;;;;;8.60;5.47;;;-2.80;99.90;;;;;;5056125;28;20055;-74
2021/12/26 10:34:43;;;;;;;10.45;5.93;;;-2.60;99.90;;;;;;5039194;28;20125;-75
2021/12/26 10:37:24;;;;;;;8.43;5.03;;;-2.30;99.90;;;;;;5051667;28;20087;-75
2021/12/26 10:39:59;;;;;;;10.48;5.72;;;-1.60;99.00;;;;;;5018817;28;20056;-75
2021/12/26 10:42:31;;;;;;;8.57;5.72;;;-1.10;97.30;;;;;;5019337;28;20041;-75
2021/12/26 10:45:19;;;;;;;9.38;5.68;;;-1.00;96.80;;;;;;5035635;28;20086;-74
2021/12/26 10:47:52;;;;;;;11.90;5.93;;;-0.80;95.90;;;;;;5018565;28;20130;-75
2021/12/26 10:50:21;;;;;;;8.63;5.75;;;-0.50;94.60;;;;;;5035234;28;20572;-75
2021/12/26 10:52:58;;;;;;;9.60;5.47;;;-0.20;93.60;;;;;;5035923;28;20048;-75
2021/12/26 10:55:27;;;;;;;9.23;5.80;;;0.10;91.70;;;;;;5018680;28;20310;-76
2021/12/26 10:57:53;;;;;;;9.38;6.03;;;0.20;92.10;;;;;;5022005;28;20045;-74
2021/12/26 11:00:23;;;;;;;10.20;5.97;;;-0.20;93.70;;;;;;5031391;28;20125;-74
2021/12/26 11:03:04;;;;;;;10.57;5.80;;;-0.50;96.10;;;;;;4999116;28;20037;-75
2021/12/26 11:05:43;;;;;;;8.20;5.13;;;-0.90;97.10;;;;;;5015238;28;20044;-73
2021/12/26 11:08:11;;;;;;;10.68;6.28;;;-1.10;98.80;;;;;;4999276;28;20048;-74
2021/12/26 11:10:44;;;;;;;10.48;6.40;;;-1.20;99.90;;;;;;5021020;28;20047;-73
2021/12/26 11:13:17;;;;;;;9.30;5.82;;;-1.30;99.90;;;;;;5035051;28;20041;-76
2021/12/26 11:15:45;;;;;;;7.35;5.15;;;-1.30;99.90;;;;;;5018758;28;20153;-74
2021/12/26 11:18:14;;;;;;;8.40;5.72;;;-1.30;99.90;;;;;;5034634;28;20115;-74
2021/12/26 11:20:52;;;;;;;7.85;5.30;;;-1.10;99.90;;;;;;5035139;28;20040;-75
2021/12/26 11:23:40;;;;;;;7.65;5.15;;;-0.60;98.40;;;;;;5018329;28;20138;-74
2021/12/26 11:26:10;;;;;;;9.10;5.72;;;-0.40;97.90;;;;;;5035247;28;20056;-74
2021/12/26 11:28:39;;;;;;;9.73;6.00;;;-0.40;98.40;;;;;;5018353;28;20041;-74
2021/12/26 11:31:11;;;;;;;8.50;6.07;;;-0.50;98.80;;;;;;5034973;28;20047;-74
2021/12/26 11:33:38;;;;;;;8.60;5.47;;;-0.50;99.40;;;;;;5034838;28;20037;-74
2021/12/26 11:36:06;;;;;;;9.18;5.80;;;-0.50;99.20;;;;;;5034596;28;20387;-73
2021/12/26 11:38:32;;;;;;;9.07;4.70;;;-0.30;98.70;;;;;;5034440;28;20483;-74
2021/12/26 11:41:03;;;;;;;8.75;6.22;;;0.10;97.20;;;;;;5018674;28;20040;-75
2021/12/26 11:43:47;;;;;;;8.50;5.90;;;0.30;96.90;;;;;;5018440;28;20383;-74
2021/12/26 11:46:59;;;;;;;8.30;5.57;;;0.50;95.10;;;;;;5018374;28;20087;-75
2021/12/26 11:49:42;;;;;;;9.77;5.43;;;0.80;93.30;;;;;;5034740;28;20150;-74
2021/12/26 11:52:28;;;;;;;11.90;6.00;;;1.10;93.50;;;;;;5034734;28;20554;-74
2021/12/26 11:55:22;;;;;;;10.98;6.38;;;1.50;91.90;;;;;;5018163;28;20048;-74
2021/12/26 11:58:28;;;;;;;9.32;6.00;;;1.90;90.50;;;;;;5030253;28;20046;-74
2021/12/26 12:00:56;;;;;;;9.52;6.20;;;2.20;80.70;;;;;;5036910;28;20075;-74
2021/12/26 12:03:24;;;;;;;10.18;6.07;;;2.30;86.20;;;;;;5056280;28;20040;-74
2021/12/26 12:05:51;;;;;;;10.45;5.75;;;1.90;90.20;;;;;;5057653;28;20120;-74
2021/12/26 12:08:35;;;;;;;10.93;5.63;;;1.60;92.50;;;;;;5057494;28;20450;-74
2021/12/26 12:11:05;;;;;;;9.63;5.72;;;1.60;92.30;;;;;;5041155;28;20036;-74
2021/12/26 12:13:45;;;;;;;9.10;6.20;;;1.60;92.60;;;;;;5039631;28;20140;-73
2021/12/26 12:16:13;;;;;;;9.32;5.93;;;1.90;89.90;;;;;;5056580;28;20043;-74
2021/12/26 12:18:45;;;;;;;10.88;6.57;;;2.20;90.10;;;;;;5040189;28;20129;-74
2021/12/26 12:21:21;;;;;;;10.35;6.28;;;2.20;89.10;;;;;;5053458;28;20036;-75
2021/12/26 12:24:12;;;;;;;9.20;5.68;;;2.00;87.70;;;;;;5020227;28;20426;-75
2021/12/26 12:26:58;;;;;;;9.15;5.68;;;2.00;90.60;;;;;;5036950;28;20043;-73
2021/12/26 12:29:29;;;;;;;8.98;5.97;;;2.00;90.10;;;;;;5036832;28;20388;-73
2021/12/26 12:32:07;;;;;;;10.88;5.53;;;2.20;91.40;;;;;;5036340;28;20048;-73
2021/12/26 12:35:05;;;;;;;8.20;5.70;;;2.50;90.50;;;;;;5019582;28;20124;-75
2021/12/26 12:37:47;;;;;;;10.45;6.13;;;2.40;84.10;;;;;;5036432;28;20044;-73
2021/12/26 12:40:29;;;;;;;8.57;5.78;;;2.10;91.70;;;;;;5037052;28;20108;-71
2021/12/26 12:43:16;;;;;;;11.15;6.10;;;1.60;93.60;;;;;;5020339;28;20375;-73
2021/12/26 12:45:54;;;;;;;8.07;5.45;;;1.60;94.00;;;;;;5036972;28;20356;-73
2021/12/26 12:48:30;;;;;;;10.30;6.15;;;1.90;92.40;;;;;;5036725;28;20096;-72